sensor_id;sensor_type;location;lat;lon;timestamp;temperature;humidity
18597;DHT22;9428;50.950;6.912;2023-05-07T00:02:31;15.70;99.90
18597;DHT22;9428;50.950;6.912;2023-05-07T00:05:18;14.80;99.90
18597;DHT22;9428;50.950;6.912;2023-05-07T00:08:07;15.60;99.90
18597;DHT22;9428;50.950;6.912;2023-05-07T00:10:54;15.90;99.90
18597;DHT22;9428;50.950;6.912;2023-05-07T00:13:41;15.80;99.90
18597;DHT22;9428;50.950;6.912;2023-05-07T00:16:28;15.60;99.90
18597;DHT22;9428;50.950;6.912;2023-05-07T00:19:16;15.70;99.90
18597;DHT22;9428;50.950;6.912;2023-05-07T00:22:03;15.90;99.90
18597;DHT22;9428;50.950;6.912;2023-05-07T00:24:52;15.80;99.90
18597;DHT22;9428;50.950;6.912;2023-05-07T00:27:40;15.70;99.90
18597;DHT22;9428;50.950;6.912;2023-05-07T00:30:27;15.60;99.90
18597;DHT22;9428;50.950;6.912;2023-05-07T00:33:16;15.70;99.90
18597;DHT22;9428;50.950;6.912;2023-05-07T00:36:04;15.60;99.90
18597;DHT22;9428;50.950;6.912;2023-05-07T00:38:51;15.60;99.90
18597;DHT22;9428;50.950;6.912;2023-05-07T00:41:40;15.60;99.90
18597;DHT22;9428;50.950;6.912;2023-05-07T00:44:28;16.00;99.90
18597;DHT22;9428;50.950;6.912;2023-05-07T00:47:15;15.70;99.90
18597;DHT22;9428;50.950;6.912;2023-05-07T00:50:04;16.00;99.90
18597;DHT22;9428;50.950;6.912;2023-05-07T00:52:52;15.60;99.90
18597;DHT22;9428;50.950;6.912;2023-05-07T00:55:39;15.60;99.90
18597;DHT22;9428;50.950;6.912;2023-05-07T00:58:28;15.60;99.90
18597;DHT22;9428;50.950;6.912;2023-05-07T01:01:16;15.60;99.90
18597;DHT22;9428;50.950;6.912;2023-05-07T01:04:03;15.60;99.90
18597;DHT22;9428;50.950;6.912;2023-05-07T01:06:51;15.50;99.90
18597;DHT22;9428;50.950;6.912;2023-05-07T01:09:39;15.80;99.90
18597;DHT22;9428;50.950;6.912;2023-05-07T01:12:28;15.60;99.90
18597;DHT22;9428;50.950;6.912;2023-05-07T01:15:17;15.60;99.90
18597;DHT22;9428;50.950;6.912;2023-05-07T01:18:04;15.90;99.90
18597;DHT22;9428;50.950;6.912;2023-05-07T01:20:52;15.60;99.90
18597;DHT22;9428;50.950;6.912;2023-05-07T01:23:42;15.60;99.90
18597;DHT22;9428;50.950;6.912;2023-05-07T01:26:31;15.60;99.90
18597;DHT22;9428;50.950;6.912;2023-05-07T01:29:18;15.50;99.90
18597;DHT22;9428;50.950;6.912;2023-05-07T01:32:06;16.20;99.90
18597;DHT22;9428;50.950;6.912;2023-05-07T01:34:54;15.50;99.90
18597;DHT22;9428;50.950;6.912;2023-05-07T01:37:42;15.90;99.90
18597;DHT22;9428;50.950;6.912;2023-05-07T01:40:31;15.40;99.90
18597;DHT22;9428;50.950;6.912;2023-05-07T01:43:19;15.40;99.90
18597;DHT22;9428;50.950;6.912;2023-05-07T01:46:07;15.40;99.90
18597;DHT22;9428;50.950;6.912;2023-05-07T01:48:55;15.40;99.90
18597;DHT22;9428;50.950;6.912;2023-05-07T01:51:43;15.40;99.90
18597;DHT22;9428;50.950;6.912;2023-05-07T01:54:30;15.40;99.90
18597;DHT22;9428;50.950;6.912;2023-05-07T01:57:19;15.50;99.90
18597;DHT22;9428;50.950;6.912;2023-05-07T02:00:07;15.60;99.90
18597;DHT22;9428;50.950;6.912;2023-05-07T02:02:55;15.30;99.90
18597;DHT22;9428;50.950;6.912;2023-05-07T02:05:42;15.30;99.90
18597;DHT22;9428;50.950;6.912;2023-05-07T02:08:30;15.30;99.90
18597;DHT22;9428;50.950;6.912;2023-05-07T02:11:17;15.30;99.90
18597;DHT22;9428;50.950;6.912;2023-05-07T02:14:06;15.80;99.90
18597;DHT22;9428;50.950;6.912;2023-05-07T02:16:53;15.30;99.90
18597;DHT22;9428;50.950;6.912;2023-05-07T02:19:40;15.10;99.90
18597;DHT22;9428;50.950;6.912;2023-05-07T02:22:27;15.20;99.90
18597;DHT22;9428;50.950;6.912;2023-05-07T02:25:15;15.20;99.90
18597;DHT22;9428;50.950;6.912;2023-05-07T02:28:02;15.20;99.90
18597;DHT22;9428;50.950;6.912;2023-05-07T02:30:50;15.10;99.90
18597;DHT22;9428;50.950;6.912;2023-05-07T02:33:38;15.40;99.90
18597;DHT22;9428;50.950;6.912;2023-05-07T02:36:25;15.10;99.90
18597;DHT22;9428;50.950;6.912;2023-05-07T02:39:12;15.00;99.90
18597;DHT22;9428;50.950;6.912;2023-05-07T02:42:00;15.00;99.90
18597;DHT22;9428;50.950;6.912;2023-05-07T02:44:47;15.00;99.90
18597;DHT22;9428;50.950;6.912;2023-05-07T02:47:36;15.40;99.90
18597;DHT22;9428;50.950;6.912;2023-05-07T02:50:23;15.10;99.90
18597;DHT22;9428;50.950;6.912;2023-05-07T02:53:11;15.10;99.90
18597;DHT22;9428;50.950;6.912;2023-05-07T02:56:01;15.00;99.90
18597;DHT22;9428;50.950;6.912;2023-05-07T02:58:49;15.10;99.90
18597;DHT22;9428;50.950;6.912;2023-05-07T03:01:36;15.70;99.90
18597;DHT22;9428;50.950;6.912;2023-05-07T03:04:24;15.20;99.90
18597;DHT22;9428;50.950;6.912;2023-05-07T03:07:12;15.20;99.90
18597;DHT22;9428;50.950;6.912;2023-05-07T03:10:00;15.10;99.90
18597;DHT22;9428;50.950;6.912;2023-05-07T03:12:47;15.10;99.90
18597;DHT22;9428;50.950;6.912;2023-05-07T03:15:34;15.10;99.90
18597;DHT22;9428;50.950;6.912;2023-05-07T03:18:22;15.10;99.90
18597;DHT22;9428;50.950;6.912;2023-05-07T03:21:10;15.50;99.90
18597;DHT22;9428;50.950;6.912;2023-05-07T03:23:58;15.10;99.90
18597;DHT22;9428;50.950;6.912;2023-05-07T03:26:45;15.00;99.90
18597;DHT22;9428;50.950;6.912;2023-05-07T03:29:32;15.10;99.90
18597;DHT22;9428;50.950;6.912;2023-05-07T03:32:19;15.10;99.90
18597;DHT22;9428;50.950;6.912;2023-05-07T03:35:07;15.00;99.90
18597;DHT22;9428;50.950;6.912;2023-05-07T03:37:55;15.10;99.90
18597;DHT22;9428;50.950;6.912;2023-05-07T03:40:42;15.60;99.90
18597;DHT22;9428;50.950;6.912;2023-05-07T03:43:30;15.50;99.90
18597;DHT22;9428;50.950;6.912;2023-05-07T03:46:17;15.00;99.90
18597;DHT22;9428;50.950;6.912;2023-05-07T03:49:04;15.00;99.90
18597;DHT22;9428;50.950;6.912;2023-05-07T03:51:51;15.00;99.90
18597;DHT22;9428;50.950;6.912;2023-05-07T03:54:40;15.00;99.90
18597;DHT22;9428;50.950;6.912;2023-05-07T03:57:27;15.00;99.90
18597;DHT22;9428;50.950;6.912;2023-05-07T04:00:15;15.00;99.90
18597;DHT22;9428;50.950;6.912;2023-05-07T04:03:02;15.10;99.90
18597;DHT22;9428;50.950;6.912;2023-05-07T04:05:50;15.00;99.90
18597;DHT22;9428;50.950;6.912;2023-05-07T04:08:37;15.00;99.90
18597;DHT22;9428;50.950;6.912;2023-05-07T04:11:26;15.00;99.90
18597;DHT22;9428;50.950;6.912;2023-05-07T04:14:13;15.00;99.90
18597;DHT22;9428;50.950;6.912;2023-05-07T04:17:00;15.10;99.90
18597;DHT22;9428;50.950;6.912;2023-05-07T04:19:48;15.10;99.90
18597;DHT22;9428;50.950;6.912;2023-05-07T04:22:35;15.10;99.90
18597;DHT22;9428;50.950;6.912;2023-05-07T04:25:23;15.10;99.90
18597;DHT22;9428;50.950;6.912;2023-05-07T04:28:13;15.80;99.90
18597;DHT22;9428;50.950;6.912;2023-05-07T04:31:01;15.10;99.90
18597;DHT22;9428;50.950;6.912;2023-05-07T04:33:48;15.10;99.90
18597;DHT22;9428;50.950;6.912;2023-05-07T04:36:37;15.20;99.90
18597;DHT22;9428;50.950;6.912;2023-05-07T04:39:24;15.20;99.90
18597;DHT22;9428;50.950;6.912;2023-05-07T04:42:14;15.30;99.90
18597;DHT22;9428;50.950;6.912;2023-05-07T04:45:03;15.20;99.90
18597;DHT22;9428;50.950;6.912;2023-05-07T04:47:51;15.30;99.90
18597;DHT22;9428;50.950;6.912;2023-05-07T04:50:38;15.30;99.90
18597;DHT22;9428;50.950;6.912;2023-05-07T04:53:25;15.30;99.90
18597;DHT22;9428;50.950;6.912;2023-05-07T04:56:13;15.40;99.90
18597;DHT22;9428;50.950;6.912;2023-05-07T04:59:00;15.30;99.90
18597;DHT22;9428;50.950;6.912;2023-05-07T05:01:48;15.30;99.90
18597;DHT22;9428;50.950;6.912;2023-05-07T05:04:36;15.40;99.90
18597;DHT22;9428;50.950;6.912;2023-05-07T05:07:23;15.40;99.90
18597;DHT22;9428;50.950;6.912;2023-05-07T05:10:11;15.40;99.90
18597;DHT22;9428;50.950;6.912;2023-05-07T05:12:58;16.00;99.90
18597;DHT22;9428;50.950;6.912;2023-05-07T05:15:45;15.40;99.90
18597;DHT22;9428;50.950;6.912;2023-05-07T05:18:35;15.50;99.90
18597;DHT22;9428;50.950;6.912;2023-05-07T05:21:22;15.50;99.90
18597;DHT22;9428;50.950;6.912;2023-05-07T05:24:09;15.60;99.90
18597;DHT22;9428;50.950;6.912;2023-05-07T05:26:56;16.00;99.90
18597;DHT22;9428;50.950;6.912;2023-05-07T05:29:45;16.00;99.90
18597;DHT22;9428;50.950;6.912;2023-05-07T05:32:33;15.60;99.90
18597;DHT22;9428;50.950;6.912;2023-05-07T05:35:21;16.00;99.90
18597;DHT22;9428;50.950;6.912;2023-05-07T05:38:09;15.60;99.90
18597;DHT22;9428;50.950;6.912;2023-05-07T05:40:56;15.60;99.90
18597;DHT22;9428;50.950;6.912;2023-05-07T05:43:43;15.60;99.90
18597;DHT22;9428;50.950;6.912;2023-05-07T05:46:30;15.60;99.90
18597;DHT22;9428;50.950;6.912;2023-05-07T05:49:18;15.60;99.90
18597;DHT22;9428;50.950;6.912;2023-05-07T05:52:06;15.70;99.90
18597;DHT22;9428;50.950;6.912;2023-05-07T05:54:53;15.70;99.90
18597;DHT22;9428;50.950;6.912;2023-05-07T05:57:41;15.80;99.90
18597;DHT22;9428;50.950;6.912;2023-05-07T06:00:28;15.80;99.90
18597;DHT22;9428;50.950;6.912;2023-05-07T06:03:16;15.90;99.90
18597;DHT22;9428;50.950;6.912;2023-05-07T06:06:03;15.90;99.90
18597;DHT22;9428;50.950;6.912;2023-05-07T06:08:52;15.80;99.90
18597;DHT22;9428;50.950;6.912;2023-05-07T06:11:39;15.80;99.90
18597;DHT22;9428;50.950;6.912;2023-05-07T06:14:26;16.00;99.90
18597;DHT22;9428;50.950;6.912;2023-05-07T06:17:14;16.10;99.90
18597;DHT22;9428;50.950;6.912;2023-05-07T06:20:01;16.00;99.90
18597;DHT22;9428;50.950;6.912;2023-05-07T06:22:48;16.20;99.90
18597;DHT22;9428;50.950;6.912;2023-05-07T06:25:37;16.80;99.90
18597;DHT22;9428;50.950;6.912;2023-05-07T06:28:24;16.30;99.90
18597;DHT22;9428;50.950;6.912;2023-05-07T06:31:12;16.30;99.90
18597;DHT22;9428;50.950;6.912;2023-05-07T06:33:59;16.30;99.90
18597;DHT22;9428;50.950;6.912;2023-05-07T06:36:48;16.40;99.90
18597;DHT22;9428;50.950;6.912;2023-05-07T06:39:35;16.30;99.90
18597;DHT22;9428;50.950;6.912;2023-05-07T06:42:23;16.50;99.90
18597;DHT22;9428;50.950;6.912;2023-05-07T06:45:11;16.50;99.90
18597;DHT22;9428;50.950;6.912;2023-05-07T06:47:58;16.50;99.90
18597;DHT22;9428;50.950;6.912;2023-05-07T06:50:45;16.50;99.90
18597;DHT22;9428;50.950;6.912;2023-05-07T06:53:33;16.50;99.90
18597;DHT22;9428;50.950;6.912;2023-05-07T06:56:21;16.60;99.90
18597;DHT22;9428;50.950;6.912;2023-05-07T06:59:10;16.70;99.90
18597;DHT22;9428;50.950;6.912;2023-05-07T07:01:57;16.60;99.90
18597;DHT22;9428;50.950;6.912;2023-05-07T07:04:44;16.70;99.90
18597;DHT22;9428;50.950;6.912;2023-05-07T07:07:31;16.70;99.90
18597;DHT22;9428;50.950;6.912;2023-05-07T07:10:19;16.70;99.90
18597;DHT22;9428;50.950;6.912;2023-05-07T07:13:06;16.80;99.90
18597;DHT22;9428;50.950;6.912;2023-05-07T07:15:55;16.80;99.90
18597;DHT22;9428;50.950;6.912;2023-05-07T07:18:42;16.90;99.90
18597;DHT22;9428;50.950;6.912;2023-05-07T07:21:29;16.90;99.90
18597;DHT22;9428;50.950;6.912;2023-05-07T07:24:17;16.90;99.90
18597;DHT22;9428;50.950;6.912;2023-05-07T07:27:07;17.00;99.90
18597;DHT22;9428;50.950;6.912;2023-05-07T07:29:54;17.10;99.90
18597;DHT22;9428;50.950;6.912;2023-05-07T07:32:42;17.20;99.90
18597;DHT22;9428;50.950;6.912;2023-05-07T07:35:30;17.10;99.90
18597;DHT22;9428;50.950;6.912;2023-05-07T07:38:17;17.10;99.90
18597;DHT22;9428;50.950;6.912;2023-05-07T07:41:04;17.20;99.90
18597;DHT22;9428;50.950;6.912;2023-05-07T07:43:52;17.30;99.90
18597;DHT22;9428;50.950;6.912;2023-05-07T07:46:39;17.40;99.90
18597;DHT22;9428;50.950;6.912;2023-05-07T07:49:27;17.40;99.90
18597;DHT22;9428;50.950;6.912;2023-05-07T07:52:15;17.50;99.90
18597;DHT22;9428;50.950;6.912;2023-05-07T07:55:02;17.50;99.90
18597;DHT22;9428;50.950;6.912;2023-05-07T07:57:50;17.60;99.90
18597;DHT22;9428;50.950;6.912;2023-05-07T08:00:37;17.60;99.90
18597;DHT22;9428;50.950;6.912;2023-05-07T08:03:24;17.60;99.90
18597;DHT22;9428;50.950;6.912;2023-05-07T08:06:13;17.60;99.90
18597;DHT22;9428;50.950;6.912;2023-05-07T08:09:01;17.60;99.90
18597;DHT22;9428;50.950;6.912;2023-05-07T08:11:48;17.60;99.90
18597;DHT22;9428;50.950;6.912;2023-05-07T08:14:36;17.60;99.90
18597;DHT22;9428;50.950;6.912;2023-05-07T08:17:24;17.70;99.90
18597;DHT22;9428;50.950;6.912;2023-05-07T08:20:11;17.80;99.90
18597;DHT22;9428;50.950;6.912;2023-05-07T08:23:00;18.00;99.90
18597;DHT22;9428;50.950;6.912;2023-05-07T08:25:48;18.10;99.90
18597;DHT22;9428;50.950;6.912;2023-05-07T08:28:35;18.20;99.90
18597;DHT22;9428;50.950;6.912;2023-05-07T08:31:23;18.10;99.90
18597;DHT22;9428;50.950;6.912;2023-05-07T08:34:10;18.10;99.90
18597;DHT22;9428;50.950;6.912;2023-05-07T08:36:57;18.30;99.90
18597;DHT22;9428;50.950;6.912;2023-05-07T08:39:46;18.30;99.90
18597;DHT22;9428;50.950;6.912;2023-05-07T08:42:35;18.40;99.90
18597;DHT22;9428;50.950;6.912;2023-05-07T08:45:24;18.50;99.90
18597;DHT22;9428;50.950;6.912;2023-05-07T08:48:15;18.50;99.90
18597;DHT22;9428;50.950;6.912;2023-05-07T08:51:03;18.60;99.90
18597;DHT22;9428;50.950;6.912;2023-05-07T08:53:50;18.70;99.90
18597;DHT22;9428;50.950;6.912;2023-05-07T08:56:39;18.80;99.90
18597;DHT22;9428;50.950;6.912;2023-05-07T08:59:27;18.80;99.90
18597;DHT22;9428;50.950;6.912;2023-05-07T09:02:14;18.80;99.90
18597;DHT22;9428;50.950;6.912;2023-05-07T09:05:02;18.90;99.90
18597;DHT22;9428;50.950;6.912;2023-05-07T09:07:50;18.80;99.90
18597;DHT22;9428;50.950;6.912;2023-05-07T09:10:37;18.80;99.90
18597;DHT22;9428;50.950;6.912;2023-05-07T09:13:27;18.70;99.90
18597;DHT22;9428;50.950;6.912;2023-05-07T09:16:15;18.70;99.90
18597;DHT22;9428;50.950;6.912;2023-05-07T09:19:02;18.70;99.90
18597;DHT22;9428;50.950;6.912;2023-05-07T09:21:50;18.80;99.90
18597;DHT22;9428;50.950;6.912;2023-05-07T09:24:37;18.90;99.90
18597;DHT22;9428;50.950;6.912;2023-05-07T09:27:25;19.00;99.90
18597;DHT22;9428;50.950;6.912;2023-05-07T09:30:14;19.00;99.90
18597;DHT22;9428;50.950;6.912;2023-05-07T09:33:02;19.00;99.90
18597;DHT22;9428;50.950;6.912;2023-05-07T09:35:51;19.00;99.90
18597;DHT22;9428;50.950;6.912;2023-05-07T09:38:38;19.10;99.90
18597;DHT22;9428;50.950;6.912;2023-05-07T09:41:26;19.10;99.90
18597;DHT22;9428;50.950;6.912;2023-05-07T09:44:14;19.10;99.90
18597;DHT22;9428;50.950;6.912;2023-05-07T09:47:05;19.10;99.90
18597;DHT22;9428;50.950;6.912;2023-05-07T09:49:56;19.10;99.90
18597;DHT22;9428;50.950;6.912;2023-05-07T09:52:45;19.10;99.90
18597;DHT22;9428;50.950;6.912;2023-05-07T09:55:32;19.10;99.90
18597;DHT22;9428;50.950;6.912;2023-05-07T09:58:20;19.10;99.90
18597;DHT22;9428;50.950;6.912;2023-05-07T10:01:10;19.20;99.90
18597;DHT22;9428;50.950;6.912;2023-05-07T10:03:59;19.10;99.90
18597;DHT22;9428;50.950;6.912;2023-05-07T10:06:46;19.00;99.90
18597;DHT22;9428;50.950;6.912;2023-05-07T10:09:34;19.00;99.90
18597;DHT22;9428;50.950;6.912;2023-05-07T10:12:24;19.10;99.90
18597;DHT22;9428;50.950;6.912;2023-05-07T10:15:12;19.40;99.90
18597;DHT22;9428;50.950;6.912;2023-05-07T10:18:00;19.50;99.90
18597;DHT22;9428;50.950;6.912;2023-05-07T10:20:51;19.50;99.90
18597;DHT22;9428;50.950;6.912;2023-05-07T10:23:40;19.40;99.90
18597;DHT22;9428;50.950;6.912;2023-05-07T10:26:29;19.60;99.90
18597;DHT22;9428;50.950;6.912;2023-05-07T10:29:21;19.50;99.90
18597;DHT22;9428;50.950;6.912;2023-05-07T10:32:30;19.40;99.90
18597;DHT22;9428;50.950;6.912;2023-05-07T10:35:23;19.60;99.90
18597;DHT22;9428;50.950;6.912;2023-05-07T10:38:13;19.70;99.90
18597;DHT22;9428;50.950;6.912;2023-05-07T10:41:00;19.70;99.90
18597;DHT22;9428;50.950;6.912;2023-05-07T10:43:50;19.80;99.90
18597;DHT22;9428;50.950;6.912;2023-05-07T10:46:37;19.70;99.90
18597;DHT22;9428;50.950;6.912;2023-05-07T10:49:25;19.90;99.90
18597;DHT22;9428;50.950;6.912;2023-05-07T10:52:17;20.10;99.90
18597;DHT22;9428;50.950;6.912;2023-05-07T10:55:22;20.20;99.90
18597;DHT22;9428;50.950;6.912;2023-05-07T10:58:23;20.40;99.90
18597;DHT22;9428;50.950;6.912;2023-05-07T11:01:12;20.50;99.90
18597;DHT22;9428;50.950;6.912;2023-05-07T11:04:13;20.50;99.90
18597;DHT22;9428;50.950;6.912;2023-05-07T11:07:34;20.70;99.90
18597;DHT22;9428;50.950;6.912;2023-05-07T11:10:23;20.80;99.90
18597;DHT22;9428;50.950;6.912;2023-05-07T11:13:10;20.90;99.90
18597;DHT22;9428;50.950;6.912;2023-05-07T11:15:57;20.90;99.90
18597;DHT22;9428;50.950;6.912;2023-05-07T11:18:48;21.00;99.90
18597;DHT22;9428;50.950;6.912;2023-05-07T11:21:37;21.10;99.90
18597;DHT22;9428;50.950;6.912;2023-05-07T11:24:25;20.90;99.90
18597;DHT22;9428;50.950;6.912;2023-05-07T11:27:14;20.90;99.90
18597;DHT22;9428;50.950;6.912;2023-05-07T11:30:01;20.80;99.90
18597;DHT22;9428;50.950;6.912;2023-05-07T11:32:48;20.90;99.90
18597;DHT22;9428;50.950;6.912;2023-05-07T11:35:35;20.80;99.90
18597;DHT22;9428;50.950;6.912;2023-05-07T11:38:25;20.80;99.90
18597;DHT22;9428;50.950;6.912;2023-05-07T11:41:12;20.80;99.90
18597;DHT22;9428;50.950;6.912;2023-05-07T11:44:01;20.80;99.90
18597;DHT22;9428;50.950;6.912;2023-05-07T11:46:48;20.80;99.90
18597;DHT22;9428;50.950;6.912;2023-05-07T11:49:36;20.80;99.90
18597;DHT22;9428;50.950;6.912;2023-05-07T11:52:24;20.90;99.90
18597;DHT22;9428;50.950;6.912;2023-05-07T11:55:11;20.90;99.90
18597;DHT22;9428;50.950;6.912;2023-05-07T11:57:58;20.90;99.90
18597;DHT22;9428;50.950;6.912;2023-05-07T12:00:49;20.90;99.90
18597;DHT22;9428;50.950;6.912;2023-05-07T12:03:37;20.70;99.90
18597;DHT22;9428;50.950;6.912;2023-05-07T12:06:28;20.70;99.90
18597;DHT22;9428;50.950;6.912;2023-05-07T12:09:15;20.70;99.90
18597;DHT22;9428;50.950;6.912;2023-05-07T12:12:03;20.70;99.90
18597;DHT22;9428;50.950;6.912;2023-05-07T12:14:51;20.70;99.90
18597;DHT22;9428;50.950;6.912;2023-05-07T12:17:40;20.80;99.90
18597;DHT22;9428;50.950;6.912;2023-05-07T12:20:27;20.70;99.90
18597;DHT22;9428;50.950;6.912;2023-05-07T12:23:15;20.70;99.90
18597;DHT22;9428;50.950;6.912;2023-05-07T12:26:03;20.80;99.90
18597;DHT22;9428;50.950;6.912;2023-05-07T12:28:50;20.80;99.90
18597;DHT22;9428;50.950;6.912;2023-05-07T12:31:40;21.10;99.90
18597;DHT22;9428;50.950;6.912;2023-05-07T12:34:29;21.10;99.90
18597;DHT22;9428;50.950;6.912;2023-05-07T12:37:23;21.00;99.90
18597;DHT22;9428;50.950;6.912;2023-05-07T12:40:11;21.00;99.90
18597;DHT22;9428;50.950;6.912;2023-05-07T12:42:59;20.90;99.90
18597;DHT22;9428;50.950;6.912;2023-05-07T12:45:48;20.70;99.90
18597;DHT22;9428;50.950;6.912;2023-05-07T12:48:37;20.70;99.90
18597;DHT22;9428;50.950;6.912;2023-05-07T12:51:27;20.60;99.90
18597;DHT22;9428;50.950;6.912;2023-05-07T12:54:28;20.70;99.90
18597;DHT22;9428;50.950;6.912;2023-05-07T12:57:19;20.60;99.90
18597;DHT22;9428;50.950;6.912;2023-05-07T13:00:08;20.60;99.90
18597;DHT22;9428;50.950;6.912;2023-05-07T13:02:55;20.50;99.90
18597;DHT22;9428;50.950;6.912;2023-05-07T13:05:42;20.50;99.90
18597;DHT22;9428;50.950;6.912;2023-05-07T13:08:33;20.30;99.90
18597;DHT22;9428;50.950;6.912;2023-05-07T13:11:20;20.30;99.90
18597;DHT22;9428;50.950;6.912;2023-05-07T13:14:07;20.30;99.90
18597;DHT22;9428;50.950;6.912;2023-05-07T13:16:55;20.20;99.90
18597;DHT22;9428;50.950;6.912;2023-05-07T13:19:42;20.20;99.90
18597;DHT22;9428;50.950;6.912;2023-05-07T13:22:29;20.20;99.90
18597;DHT22;9428;50.950;6.912;2023-05-07T13:25:18;20.30;99.90
18597;DHT22;9428;50.950;6.912;2023-05-07T13:28:05;20.30;99.90
18597;DHT22;9428;50.950;6.912;2023-05-07T13:30:53;20.30;99.90
18597;DHT22;9428;50.950;6.912;2023-05-07T13:33:40;20.40;99.90
18597;DHT22;9428;50.950;6.912;2023-05-07T13:36:28;20.40;99.90
18597;DHT22;9428;50.950;6.912;2023-05-07T13:39:18;20.30;99.90
18597;DHT22;9428;50.950;6.912;2023-05-07T13:42:07;20.50;99.90
18597;DHT22;9428;50.950;6.912;2023-05-07T13:44:54;20.50;99.90
18597;DHT22;9428;50.950;6.912;2023-05-07T13:47:42;20.60;99.90
18597;DHT22;9428;50.950;6.912;2023-05-07T13:50:30;20.50;99.90
18597;DHT22;9428;50.950;6.912;2023-05-07T13:53:17;20.50;99.90
18597;DHT22;9428;50.950;6.912;2023-05-07T13:56:05;20.50;99.90
18597;DHT22;9428;50.950;6.912;2023-05-07T13:58:53;20.40;99.90
18597;DHT22;9428;50.950;6.912;2023-05-07T14:01:41;20.30;99.90
18597;DHT22;9428;50.950;6.912;2023-05-07T14:04:28;20.30;99.90
18597;DHT22;9428;50.950;6.912;2023-05-07T14:07:15;20.20;99.90
18597;DHT22;9428;50.950;6.912;2023-05-07T14:10:03;20.30;99.90
18597;DHT22;9428;50.950;6.912;2023-05-07T14:12:52;20.30;99.90
18597;DHT22;9428;50.950;6.912;2023-05-07T14:15:41;20.10;99.90
18597;DHT22;9428;50.950;6.912;2023-05-07T14:18:32;20.30;99.90
18597;DHT22;9428;50.950;6.912;2023-05-07T14:21:20;20.20;99.90
18597;DHT22;9428;50.950;6.912;2023-05-07T14:24:07;20.40;99.90
18597;DHT22;9428;50.950;6.912;2023-05-07T14:26:55;20.30;99.90
18597;DHT22;9428;50.950;6.912;2023-05-07T14:29:42;20.30;99.90
18597;DHT22;9428;50.950;6.912;2023-05-07T14:32:32;20.10;99.90
18597;DHT22;9428;50.950;6.912;2023-05-07T14:35:20;20.00;99.90
18597;DHT22;9428;50.950;6.912;2023-05-07T14:38:07;20.00;99.90
18597;DHT22;9428;50.950;6.912;2023-05-07T14:40:54;19.90;99.90
18597;DHT22;9428;50.950;6.912;2023-05-07T14:43:42;19.80;99.90
18597;DHT22;9428;50.950;6.912;2023-05-07T14:46:35;19.90;99.90
18597;DHT22;9428;50.950;6.912;2023-05-07T14:49:24;20.00;99.90
18597;DHT22;9428;50.950;6.912;2023-05-07T14:52:11;20.10;99.90
18597;DHT22;9428;50.950;6.912;2023-05-07T14:54:58;20.20;99.90
18597;DHT22;9428;50.950;6.912;2023-05-07T14:57:46;20.00;99.90
18597;DHT22;9428;50.950;6.912;2023-05-07T15:00:33;20.10;99.90
18597;DHT22;9428;50.950;6.912;2023-05-07T15:03:21;19.80;99.90
18597;DHT22;9428;50.950;6.912;2023-05-07T15:06:10;19.90;99.90
18597;DHT22;9428;50.950;6.912;2023-05-07T15:09:00;19.90;99.90
18597;DHT22;9428;50.950;6.912;2023-05-07T15:11:47;19.80;99.90
18597;DHT22;9428;50.950;6.912;2023-05-07T15:14:34;19.80;99.90
18597;DHT22;9428;50.950;6.912;2023-05-07T15:17:22;19.80;99.90
18597;DHT22;9428;50.950;6.912;2023-05-07T15:20:09;20.00;99.90
18597;DHT22;9428;50.950;6.912;2023-05-07T15:22:58;20.10;99.90
18597;DHT22;9428;50.950;6.912;2023-05-07T15:25:45;20.10;99.90
18597;DHT22;9428;50.950;6.912;2023-05-07T15:28:32;20.10;99.90
18597;DHT22;9428;50.950;6.912;2023-05-07T15:31:20;19.90;99.90
18597;DHT22;9428;50.950;6.912;2023-05-07T15:34:07;19.90;99.90
18597;DHT22;9428;50.950;6.912;2023-05-07T15:36:55;20.00;99.90
18597;DHT22;9428;50.950;6.912;2023-05-07T15:39:44;20.10;99.90
18597;DHT22;9428;50.950;6.912;2023-05-07T15:42:32;19.90;99.90
18597;DHT22;9428;50.950;6.912;2023-05-07T15:45:19;19.80;99.90
18597;DHT22;9428;50.950;6.912;2023-05-07T15:48:06;19.70;99.90
18597;DHT22;9428;50.950;6.912;2023-05-07T15:50:53;19.80;99.90
18597;DHT22;9428;50.950;6.912;2023-05-07T15:53:41;19.50;99.90
18597;DHT22;9428;50.950;6.912;2023-05-07T15:56:29;19.50;99.90
18597;DHT22;9428;50.950;6.912;2023-05-07T15:59:18;19.60;99.90
18597;DHT22;9428;50.950;6.912;2023-05-07T16:02:06;19.60;99.90
18597;DHT22;9428;50.950;6.912;2023-05-07T16:04:53;19.70;99.90
18597;DHT22;9428;50.950;6.912;2023-05-07T16:07:40;19.70;99.90
18597;DHT22;9428;50.950;6.912;2023-05-07T16:10:29;19.80;99.90
18597;DHT22;9428;50.950;6.912;2023-05-07T16:13:19;19.80;99.90
18597;DHT22;9428;50.950;6.912;2023-05-07T16:16:06;19.80;99.90
18597;DHT22;9428;50.950;6.912;2023-05-07T16:18:53;19.70;99.90
18597;DHT22;9428;50.950;6.912;2023-05-07T16:21:41;19.70;99.90
18597;DHT22;9428;50.950;6.912;2023-05-07T16:24:28;19.70;99.90
18597;DHT22;9428;50.950;6.912;2023-05-07T16:27:15;19.70;99.90
18597;DHT22;9428;50.950;6.912;2023-05-07T16:30:05;19.70;99.90
18597;DHT22;9428;50.950;6.912;2023-05-07T16:32:53;19.70;99.90
18597;DHT22;9428;50.950;6.912;2023-05-07T16:35:40;19.70;99.90
18597;DHT22;9428;50.950;6.912;2023-05-07T16:38:32;19.70;99.90
18597;DHT22;9428;50.950;6.912;2023-05-07T16:41:19;19.60;99.90
18597;DHT22;9428;50.950;6.912;2023-05-07T16:44:06;19.70;99.90
18597;DHT22;9428;50.950;6.912;2023-05-07T16:46:55;19.60;99.90
18597;DHT22;9428;50.950;6.912;2023-05-07T16:49:43;19.60;99.90
18597;DHT22;9428;50.950;6.912;2023-05-07T16:52:30;19.50;99.90
18597;DHT22;9428;50.950;6.912;2023-05-07T16:55:18;19.40;99.90
18597;DHT22;9428;50.950;6.912;2023-05-07T16:58:06;19.00;99.90
18597;DHT22;9428;50.950;6.912;2023-05-07T17:00:53;19.40;99.90
18597;DHT22;9428;50.950;6.912;2023-05-07T17:03:43;19.40;99.90
18597;DHT22;9428;50.950;6.912;2023-05-07T17:06:31;19.30;99.90
18597;DHT22;9428;50.950;6.912;2023-05-07T17:09:18;19.30;99.90
18597;DHT22;9428;50.950;6.912;2023-05-07T17:12:06;19.30;99.90
18597;DHT22;9428;50.950;6.912;2023-05-07T17:14:53;19.30;99.90
18597;DHT22;9428;50.950;6.912;2023-05-07T17:17:40;19.30;99.90
18597;DHT22;9428;50.950;6.912;2023-05-07T17:20:29;19.30;99.90
18597;DHT22;9428;50.950;6.912;2023-05-07T17:23:16;19.20;99.90
18597;DHT22;9428;50.950;6.912;2023-05-07T17:26:10;19.20;99.90
18597;DHT22;9428;50.950;6.912;2023-05-07T17:28:58;19.10;99.90
18597;DHT22;9428;50.950;6.912;2023-05-07T17:31:45;19.10;99.90
18597;DHT22;9428;50.950;6.912;2023-05-07T17:34:32;19.10;99.90
18597;DHT22;9428;50.950;6.912;2023-05-07T17:37:21;19.00;99.90
18597;DHT22;9428;50.950;6.912;2023-05-07T17:40:09;19.00;99.90
18597;DHT22;9428;50.950;6.912;2023-05-07T17:42:56;19.00;99.90
18597;DHT22;9428;50.950;6.912;2023-05-07T17:45:43;19.00;99.90
18597;DHT22;9428;50.950;6.912;2023-05-07T17:48:31;19.00;99.90
18597;DHT22;9428;50.950;6.912;2023-05-07T17:51:18;18.90;99.90
18597;DHT22;9428;50.950;6.912;2023-05-07T17:54:07;18.90;99.90
18597;DHT22;9428;50.950;6.912;2023-05-07T17:56:54;18.90;99.90
18597;DHT22;9428;50.950;6.912;2023-05-07T17:59:42;18.90;99.90